Time;durP1;ratioP1;P1;durP2;ratioP2;P2;SDS_P1;SDS_P2;PMS_P1;PMS_P2;Temp;Humidity;BMP_temperature;BMP_pressure;BME280_temperature;BME280_humidity;BME280_pressure;Samples;Min_cycle;Max_cycle;Signal;HPM_P1;HPM_P2
2023/08/18 00:01:31;;;;;;;3.28;2.97;;;23.10;59.70;24.60;101700.00;;;;5041296;28;20206;-75
2023/08/18 00:03:58;;;;;;;3.30;2.97;;;23.10;59.80;24.70;101708.00;;;;5038116;28;20204;-76
2023/08/18 00:06:25;;;;;;;2.90;2.65;;;23.10;59.80;24.60;101699.00;;;;5040275;28;20235;-77
2023/08/18 00:08:52;;;;;;;3.35;3.05;;;23.10;59.80;24.60;101695.00;;;;5040906;28;20249;-76
2023/08/18 00:11:19;;;;;;;3.90;3.33;;;23.00;59.80;24.60;101700.00;;;;5039633;28;20211;-76
2023/08/18 00:13:46;;;;;;;3.40;3.10;;;23.00;59.80;24.60;101687.00;;;;5047021;28;20944;-76
2023/08/18 00:16:13;;;;;;;3.58;3.25;;;23.00;59.80;24.60;101690.00;;;;5044393;28;20204;-76
2023/08/18 00:18:41;;;;;;;3.40;3.10;;;23.00;59.90;24.60;101683.00;;;;5040550;28;20200;-76
2023/08/18 00:21:08;;;;;;;3.35;3.05;;;23.00;59.90;24.60;101690.00;;;;5035890;28;20204;-77
2023/08/18 00:23:35;;;;;;;3.22;2.92;;;23.00;59.90;24.60;101688.00;;;;5042001;28;20208;-76
2023/08/18 00:26:03;;;;;;;4.00;3.28;;;23.00;59.90;24.50;101688.00;;;;5045760;28;20207;-77
2023/08/18 00:28:30;;;;;;;3.50;3.15;;;23.00;59.90;24.50;101685.00;;;;5046335;28;20566;-76
2023/08/18 00:30:57;;;;;;;3.65;3.35;;;23.00;59.90;24.50;101681.00;;;;5043375;28;20570;-76
2023/08/18 00:33:24;;;;;;;3.95;3.55;;;22.90;59.90;24.50;101679.00;;;;5044673;28;20550;-76
2023/08/18 00:35:52;;;;;;;3.00;2.72;;;22.90;60.00;24.50;101684.00;;;;5047944;28;20196;-77
2023/08/18 00:38:19;;;;;;;4.07;3.22;;;22.90;60.00;24.50;101677.00;;;;5048896;28;20199;-76
2023/08/18 00:40:46;;;;;;;4.15;3.30;;;22.90;60.00;24.50;101672.00;;;;5048366;28;20206;-76
2023/08/18 00:43:13;;;;;;;3.72;3.40;;;22.90;60.00;24.50;101679.00;;;;5050639;28;20210;-76
2023/08/18 00:45:40;;;;;;;3.63;3.33;;;22.90;60.10;24.40;101678.00;;;;5050830;28;20769;-76
2023/08/18 00:48:08;;;;;;;3.97;3.47;;;22.80;60.00;24.40;101676.00;;;;5046212;28;20565;-77
2023/08/18 00:50:36;;;;;;;4.70;3.13;;;22.80;60.00;24.40;101683.00;;;;5049511;28;20230;-77
2023/08/18 00:53:05;;;;;;;3.95;3.60;;;22.80;60.10;24.40;101683.00;;;;5050813;28;20211;-76
2023/08/18 00:55:32;;;;;;;6.75;3.35;;;22.80;60.10;24.40;101689.00;;;;5050090;28;20694;-77
2023/08/18 00:58:02;;;;;;;4.00;3.40;;;22.80;60.20;24.30;101679.00;;;;5047169;28;20203;-76
2023/08/18 01:00:30;;;;;;;3.88;3.47;;;22.80;60.20;24.40;101692.00;;;;5048261;28;20196;-77
2023/08/18 01:02:58;;;;;;;4.90;3.28;;;22.80;60.40;24.40;101687.00;;;;5042918;28;20210;-77
2023/08/18 01:05:25;;;;;;;3.67;3.38;;;22.80;60.30;24.40;101696.00;;;;5040190;28;20769;-76
2023/08/18 01:07:52;;;;;;;4.32;3.47;;;22.80;60.40;24.30;101695.00;;;;5031785;28;20216;-76
2023/08/18 01:10:21;;;;;;;4.25;3.58;;;22.70;60.30;24.30;101683.00;;;;5045221;28;20203;-76
2023/08/18 01:13:01;;;;;;;5.60;3.63;;;22.70;60.30;24.20;101686.00;;;;5034808;28;20208;-76
2023/08/18 01:15:35;;;;;;;4.18;3.78;;;22.70;60.50;24.20;101680.00;;;;5048827;28;20582;-76
2023/08/18 01:18:04;;;;;;;4.40;4.00;;;22.70;60.50;24.30;101687.00;;;;5044308;28;20238;-76
2023/08/18 01:20:33;;;;;;;4.22;3.88;;;22.70;60.50;24.20;101688.00;;;;5049304;28;20207;-76
2023/08/18 01:23:02;;;;;;;4.13;3.80;;;22.70;60.50;24.20;101681.00;;;;5043338;28;20206;-77
2023/08/18 01:25:30;;;;;;;3.85;3.55;;;22.60;60.50;24.20;101675.00;;;;5047356;28;20199;-76
2023/08/18 01:28:00;;;;;;;5.10;4.32;;;22.60;60.50;24.20;101675.00;;;;5049065;28;20194;-76
2023/08/18 01:30:35;;;;;;;4.60;4.10;;;22.60;60.60;24.10;101671.00;;;;5044096;28;20796;-76
2023/08/18 01:33:19;;;;;;;5.35;4.20;;;22.60;60.70;24.10;101673.00;;;;5043684;28;20195;-76
2023/08/18 01:35:48;;;;;;;4.80;4.10;;;22.60;60.80;24.20;101661.00;;;;5048484;28;20255;-76
2023/08/18 01:38:20;;;;;;;4.38;4.00;;;22.60;60.70;24.10;101659.00;;;;5044138;28;20208;-76
2023/08/18 01:40:50;;;;;;;11.43;4.72;;;22.60;60.80;24.10;101660.00;;;;5045157;28;20195;-76
2023/08/18 01:43:17;;;;;;;5.45;4.85;;;22.60;60.80;24.10;101652.00;;;;5048043;28;20199;-76
2023/08/18 01:45:44;;;;;;;4.25;3.75;;;22.50;60.80;24.10;101647.00;;;;5048623;28;20212;-76
2023/08/18 01:48:10;;;;;;;5.00;4.50;;;22.50;60.90;24.10;101647.00;;;;5048561;28;20196;-76
2023/08/18 01:50:37;;;;;;;4.60;4.10;;;22.50;60.90;24.00;101646.00;;;;5047109;28;20219;-75
2023/08/18 01:53:05;;;;;;;4.43;3.97;;;22.50;60.90;24.00;101641.00;;;;5048236;28;20646;-76
2023/08/18 01:55:33;;;;;;;4.72;3.92;;;22.40;61.00;24.00;101645.00;;;;5048442;28;20227;-76
2023/08/18 01:58:00;;;;;;;4.40;4.00;;;22.40;61.00;24.00;101644.00;;;;5048313;28;20200;-76
2023/08/18 02:00:27;;;;;;;4.57;4.18;;;22.40;61.10;23.90;101643.00;;;;5049006;28;20659;-76
2023/08/18 02:02:54;;;;;;;5.15;3.72;;;22.40;61.20;23.90;101639.00;;;;5049346;28;20192;-75
2023/08/18 02:05:21;;;;;;;4.45;4.05;;;22.30;61.10;23.90;101636.00;;;;5047265;28;20567;-76
2023/08/18 02:07:48;;;;;;;4.15;3.75;;;22.30;61.30;23.90;101638.00;;;;5047269;28;20236;-76
2023/08/18 02:10:15;;;;;;;4.03;3.65;;;22.30;61.30;23.90;101638.00;;;;5047237;28;20212;-77
2023/08/18 02:12:43;;;;;;;4.28;3.90;;;22.30;61.40;23.90;101640.00;;;;5047993;28;20202;-76
2023/08/18 02:15:11;;;;;;;4.22;3.85;;;22.30;61.50;23.90;101640.00;;;;5041809;28;20226;-76
2023/08/18 02:17:38;;;;;;;3.83;3.40;;;22.30;61.50;23.90;101630.00;;;;5039746;28;20218;-77
2023/08/18 02:20:08;;;;;;;3.47;3.17;;;22.20;61.50;23.80;101644.00;;;;5045988;28;20192;-76
2023/08/18 02:22:35;;;;;;;4.05;3.55;;;22.20;61.50;23.80;101642.00;;;;5044161;28;20242;-76
2023/08/18 02:25:02;;;;;;;3.92;3.53;;;22.20;61.50;23.80;101647.00;;;;5040579;28;20211;-77
2023/08/18 02:27:29;;;;;;;3.42;3.13;;;22.20;61.60;23.80;101645.00;;;;5047190;28;20191;-76
2023/08/18 02:29:58;;;;;;;3.50;3.20;;;22.20;61.60;23.80;101642.00;;;;5046550;28;20547;-76
2023/08/18 02:32:25;;;;;;;5.13;3.63;;;22.20;61.60;23.80;101634.00;;;;5042274;28;20211;-76
2023/08/18 02:34:52;;;;;;;3.67;3.33;;;22.20;61.60;23.80;101635.00;;;;5036003;28;20703;-76
2023/08/18 02:37:19;;;;;;;4.45;3.70;;;22.20;61.70;23.80;101634.00;;;;5040070;28;20204;-76
2023/08/18 02:39:46;;;;;;;4.25;3.38;;;22.20;61.70;23.80;101627.00;;;;5034387;28;20681;-76
2023/08/18 02:42:14;;;;;;;3.63;3.25;;;22.10;61.70;23.80;101619.00;;;;5046661;28;20199;-76
2023/08/18 02:44:41;;;;;;;4.70;3.10;;;22.10;61.70;23.80;101622.00;;;;5046971;28;20192;-77
2023/08/18 02:47:09;;;;;;;4.15;3.65;;;22.10;61.80;23.70;101622.00;;;;5037425;28;20214;-77
2023/08/18 02:49:36;;;;;;;3.40;3.10;;;22.10;61.80;23.70;101619.00;;;;5045608;28;20226;-76
2023/08/18 02:52:04;;;;;;;3.40;3.10;;;22.10;62.50;23.70;101613.00;;;;5041168;28;20226;-76
2023/08/18 02:54:31;;;;;;;5.35;3.40;;;22.10;61.80;23.70;101606.00;;;;5034079;28;20224;-76
2023/08/18 02:56:58;;;;;;;3.78;2.90;;;22.10;61.90;23.70;101607.00;;;;5034394;28;20200;-76
2023/08/18 02:59:27;;;;;;;3.55;3.25;;;22.10;61.90;23.60;101599.00;;;;5043464;28;20196;-76
2023/08/18 03:01:54;;;;;;;3.03;2.70;;;22.00;61.80;23.70;101594.00;;;;5046702;28;20201;-77
2023/08/18 03:04:23;;;;;;;4.43;2.92;;;22.00;61.90;23.60;101593.00;;;;5034260;28;20188;-76
2023/08/18 03:06:50;;;;;;;4.28;3.70;;;22.00;61.90;23.60;101598.00;;;;5031970;28;20231;-76
2023/08/18 03:09:17;;;;;;;3.40;3.08;;;22.00;61.90;23.60;101601.00;;;;5047191;28;20195;-76
2023/08/18 03:11:44;;;;;;;3.50;2.83;;;22.00;61.90;23.60;101590.00;;;;5047441;28;20807;-76
2023/08/18 03:14:11;;;;;;;3.80;3.33;;;22.00;61.90;23.60;101587.00;;;;5046975;28;20199;-76
2023/08/18 03:16:38;;;;;;;3.85;3.35;;;21.90;61.90;23.50;101582.00;;;;5036696;28;20229;-76
2023/08/18 03:19:05;;;;;;;3.65;3.05;;;21.90;61.90;23.50;101587.00;;;;5046939;28;20230;-75
2023/08/18 03:21:34;;;;;;;3.15;2.85;;;21.90;62.00;23.50;101595.00;;;;5044352;28;20198;-76
2023/08/18 03:24:00;;;;;;;3.92;3.53;;;21.90;62.00;23.50;101595.00;;;;5044240;28;20203;-76
2023/08/18 03:26:27;;;;;;;4.78;3.15;;;21.90;62.10;23.40;101604.00;;;;5035073;28;20204;-76
2023/08/18 03:28:56;;;;;;;3.72;3.35;;;21.90;62.10;23.50;101593.00;;;;5028259;28;20196;-76
2023/08/18 03:31:23;;;;;;;4.30;3.45;;;21.90;62.20;23.40;101591.00;;;;5036388;28;20204;-76
2023/08/18 03:33:50;;;;;;;5.03;4.10;;;21.80;62.10;23.40;101588.00;;;;5047194;28;20200;-76
2023/08/18 03:36:17;;;;;;;4.60;3.28;;;21.90;62.60;23.40;101589.00;;;;5046701;28;20227;-76
2023/08/18 03:38:46;;;;;;;7.05;3.65;;;21.80;62.20;23.40;101586.00;;;;5043390;28;20211;-76
2023/08/18 03:41:13;;;;;;;4.00;3.45;;;21.80;62.30;23.40;101593.00;;;;5047297;28;20219;-76
2023/08/18 03:43:40;;;;;;;4.28;3.85;;;21.80;62.40;23.40;101588.00;;;;5046908;28;20199;-77
2023/08/18 03:46:21;;;;;;;5.03;3.70;;;21.80;63.00;23.30;101601.00;;;;5040811;28;20556;-76
2023/08/18 03:48:48;;;;;;;3.85;3.42;;;21.80;62.60;23.40;101593.00;;;;5032718;28;20229;-76
2023/08/18 03:51:16;;;;;;;4.40;3.85;;;21.80;62.30;23.40;101591.00;;;;5047077;28;20682;-76
2023/08/18 03:53:43;;;;;;;4.57;4.18;;;21.80;63.10;23.40;101595.00;;;;5046879;28;20211;-77
2023/08/18 03:56:11;;;;;;;6.05;4.00;;;21.80;62.40;23.40;101585.00;;;;5044038;28;20231;-77
2023/08/18 03:58:38;;;;;;;3.95;3.55;;;21.80;62.40;23.40;101583.00;;;;5041712;28;20215;-76
2023/08/18 04:01:08;;;;;;;5.93;4.07;;;21.80;62.40;23.40;101581.00;;;;5038375;28;20855;-77
2023/08/18 04:03:38;;;;;;;4.22;3.83;;;21.80;62.50;23.40;101586.00;;;;5043810;28;20282;-76
2023/08/18 04:06:05;;;;;;;4.55;4.13;;;21.80;62.50;23.40;101576.00;;;;5045597;28;20202;-77
2023/08/18 04:08:35;;;;;;;4.55;4.07;;;21.80;62.50;23.40;101579.00;;;;5042768;28;20251;-76
2023/08/18 04:11:02;;;;;;;5.35;4.07;;;21.80;62.50;23.40;101578.00;;;;5048808;28;20199;-77
2023/08/18 04:13:30;;;;;;;4.35;3.95;;;21.80;62.50;23.30;101567.00;;;;5049980;28;20602;-76
2023/08/18 04:15:57;;;;;;;4.70;4.18;;;21.70;62.50;23.40;101575.00;;;;5048466;28;20224;-76
2023/08/18 04:18:24;;;;;;;6.70;4.60;;;21.70;62.50;23.40;101574.00;;;;5031098;28;20204;-76
2023/08/18 04:20:51;;;;;;;5.72;4.57;;;21.70;62.50;23.30;101571.00;;;;5046664;28;21474;-76
2023/08/18 04:23:18;;;;;;;7.05;4.80;;;21.70;62.50;23.40;101578.00;;;;5045947;28;20286;-76
2023/08/18 04:25:46;;;;;;;5.28;4.78;;;21.70;62.60;23.30;101581.00;;;;5047522;28;20208;-76
2023/08/18 04:28:13;;;;;;;5.22;4.53;;;21.70;62.60;23.30;101584.00;;;;5049990;28;20777;-76
2023/08/18 04:30:45;;;;;;;5.68;4.55;;;21.70;62.60;23.30;101571.00;;;;5048846;28;20203;-77
2023/08/18 04:33:12;;;;;;;8.13;5.40;;;21.70;62.60;23.30;101581.00;;;;5050242;28;20204;-76
2023/08/18 04:35:40;;;;;;;6.47;5.78;;;21.70;62.60;23.30;101579.00;;;;5040818;28;20600;-76
2023/08/18 04:38:07;;;;;;;6.20;4.78;;;21.70;62.60;23.30;101580.00;;;;5049668;28;20223;-76
2023/08/18 04:40:34;;;;;;;11.35;5.68;;;21.70;62.80;23.30;101585.00;;;;5039686;28;20208;-76
2023/08/18 04:43:01;;;;;;;6.68;5.45;;;21.70;62.60;23.30;101587.00;;;;5044617;28;20200;-76
2023/08/18 04:45:28;;;;;;;6.72;5.25;;;21.70;62.60;23.30;101592.00;;;;5047296;28;20286;-77
2023/08/18 04:47:57;;;;;;;6.63;5.93;;;21.60;62.70;23.30;101591.00;;;;5039791;28;20670;-76
2023/08/18 04:50:24;;;;;;;5.28;4.78;;;21.60;62.70;23.30;101590.00;;;;5046693;28;20219;-76
2023/08/18 04:52:51;;;;;;;6.65;5.68;;;21.60;63.40;23.20;101581.00;;;;5048969;28;20203;-76
2023/08/18 04:55:18;;;;;;;6.57;5.88;;;21.60;62.70;23.20;101574.00;;;;5043743;28;20248;-77
2023/08/18 04:57:45;;;;;;;8.07;5.88;;;21.60;62.80;23.20;101573.00;;;;5044378;28;20989;-78
2023/08/18 05:00:13;;;;;;;7.13;6.35;;;21.60;62.80;23.20;101576.00;;;;5043996;28;20204;-77
2023/08/18 05:02:40;;;;;;;5.82;5.22;;;21.60;62.80;23.20;101584.00;;;;5043315;28;20203;-78
2023/08/18 05:05:08;;;;;;;7.00;6.15;;;21.60;62.90;23.20;101574.00;;;;5043795;28;20214;-77
2023/08/18 05:07:35;;;;;;;7.50;6.07;;;21.60;62.90;23.20;101586.00;;;;5047803;28;20235;-77
2023/08/18 05:10:03;;;;;;;7.63;5.90;;;21.60;62.90;23.20;101593.00;;;;5048683;28;20250;-77
2023/08/18 05:12:30;;;;;;;7.90;6.22;;;21.60;62.90;23.20;101595.00;;;;5047826;28;20251;-77
2023/08/18 05:14:57;;;;;;;6.88;5.70;;;21.60;63.00;23.20;101587.00;;;;5049509;28;20192;-77
2023/08/18 05:17:24;;;;;;;6.72;6.03;;;21.60;63.00;23.30;101587.00;;;;5049182;28;20206;-77
2023/08/18 05:19:51;;;;;;;10.27;7.22;;;21.60;63.10;23.30;101588.00;;;;5049477;28;20218;-77
2023/08/18 05:22:21;;;;;;;7.18;6.20;;;21.60;63.10;23.30;101593.00;;;;5044343;28;20206;-77
2023/08/18 05:24:48;;;;;;;8.05;6.35;;;21.60;63.20;23.30;101583.00;;;;5049731;28;20199;-77
2023/08/18 05:27:16;;;;;;;11.85;6.25;;;21.60;63.20;23.30;101582.00;;;;5048457;28;20195;-76
2023/08/18 05:29:43;;;;;;;7.57;6.10;;;21.60;63.20;23.30;101582.00;;;;5044017;28;20196;-77
2023/08/18 05:32:10;;;;;;;7.95;5.88;;;21.60;63.20;23.40;101585.00;;;;5042201;28;20671;-77
2023/08/18 05:34:37;;;;;;;8.32;6.40;;;21.70;63.30;23.40;101590.00;;;;5050136;28;20196;-77
2023/08/18 05:37:05;;;;;;;6.90;6.00;;;21.70;63.30;23.40;101593.00;;;;5049285;28;20227;-77
2023/08/18 05:39:34;;;;;;;7.07;6.38;;;21.70;63.20;23.40;101587.00;;;;5049412;28;20192;-77
2023/08/18 05:42:01;;;;;;;7.22;6.40;;;21.70;63.30;23.40;101588.00;;;;5041577;28;20227;-77
2023/08/18 05:44:28;;;;;;;7.05;6.00;;;21.70;63.30;23.40;101585.00;;;;5049534;28;20191;-77
2023/08/18 05:46:55;;;;;;;6.85;6.15;;;21.80;63.30;23.50;101581.00;;;;5042900;28;20602;-77
2023/08/18 05:49:22;;;;;;;7.85;5.97;;;21.80;63.30;23.50;101574.00;;;;5037530;28;20219;-77
2023/08/18 05:51:49;;;;;;;7.68;6.30;;;21.80;63.40;23.50;101575.00;;;;5048226;28;20195;-77
2023/08/18 05:54:16;;;;;;;7.72;6.80;;;21.80;63.40;23.50;101568.00;;;;5048381;28;20671;-77
2023/08/18 05:56:45;;;;;;;8.20;5.80;;;21.80;63.30;23.50;101564.00;;;;5048319;28;20702;-78
2023/08/18 05:59:12;;;;;;;7.57;5.95;;;21.80;63.40;23.50;101565.00;;;;5048383;28;20191;-78
2023/08/18 06:01:39;;;;;;;7.65;6.40;;;21.90;63.30;23.50;101574.00;;;;5048205;28;20203;-77
2023/08/18 06:04:07;;;;;;;8.07;6.10;;;21.90;63.40;23.60;101580.00;;;;5046473;28;20196;-77
2023/08/18 06:06:34;;;;;;;9.07;6.30;;;21.90;63.40;23.60;101569.00;;;;5033052;28;20204;-77
2023/08/18 06:09:01;;;;;;;7.78;6.63;;;21.90;63.40;23.70;101562.00;;;;5032684;28;20271;-77
2023/08/18 06:11:28;;;;;;;7.50;6.78;;;21.90;63.40;23.70;101567.00;;;;5029570;28;20192;-77
2023/08/18 06:13:56;;;;;;;8.43;7.15;;;22.00;63.50;23.70;101566.00;;;;5029849;28;20220;-78
2023/08/18 06:16:23;;;;;;;7.97;6.38;;;22.00;64.10;23.70;101563.00;;;;5039171;28;20228;-78
2023/08/18 06:18:50;;;;;;;24.67;20.17;;;22.10;63.40;23.70;101566.00;;;;5046399;28;20207;-78
2023/08/18 06:21:17;;;;;;;23.33;17.50;;;22.10;63.40;23.80;101556.00;;;;5041656;28;20200;-79
2023/08/18 06:23:46;;;;;;;13.10;10.35;;;22.10;63.40;23.80;101560.00;;;;5049173;28;20292;-78
2023/08/18 06:26:13;;;;;;;9.77;7.88;;;22.10;63.30;23.80;101553.00;;;;5048656;28;20208;-78
2023/08/18 06:28:40;;;;;;;9.13;7.35;;;22.10;63.20;23.80;101554.00;;;;5048998;28;20577;-78
2023/08/18 06:31:09;;;;;;;7.72;6.93;;;22.20;63.20;23.80;101559.00;;;;5049130;28;20203;-78
2023/08/18 06:33:36;;;;;;;7.72;6.55;;;22.20;63.20;23.80;101550.00;;;;5047322;28;20200;-78
2023/08/18 06:36:04;;;;;;;8.95;7.30;;;22.20;63.20;23.90;101558.00;;;;5048007;28;20219;-79
2023/08/18 06:38:31;;;;;;;9.35;7.18;;;22.20;63.20;23.90;101559.00;;;;5047151;28;20231;-79
2023/08/18 06:40:58;;;;;;;8.93;6.80;;;22.20;63.30;23.90;101547.00;;;;5048462;28;20196;-79
2023/08/18 06:43:25;;;;;;;8.32;6.53;;;22.30;63.30;24.00;101548.00;;;;5045832;28;20577;-79
2023/08/18 06:45:52;;;;;;;7.78;6.97;;;22.30;63.40;24.00;101542.00;;;;5047778;28;20203;-79
2023/08/18 06:48:20;;;;;;;12.18;7.10;;;22.30;63.50;24.00;101545.00;;;;5048196;28;20208;-80
2023/08/18 06:50:47;;;;;;;10.95;6.45;;;22.30;63.50;24.10;101548.00;;;;5045466;28;20243;-79
2023/08/18 06:53:14;;;;;;;8.30;6.63;;;22.40;63.50;24.10;101549.00;;;;5046727;28;20203;-79
2023/08/18 06:55:41;;;;;;;8.45;7.53;;;22.50;63.60;24.20;101547.00;;;;5039392;28;20230;-79
2023/08/18 06:58:09;;;;;;;8.05;6.53;;;22.50;63.50;24.20;101540.00;;;;5047664;28;20199;-80
2023/08/18 07:00:36;;;;;;;8.98;6.90;;;22.60;63.50;24.30;101552.00;;;;5047463;28;20270;-79
2023/08/18 07:03:04;;;;;;;8.65;6.47;;;22.60;63.40;24.30;101544.00;;;;5047121;28;20656;-79
2023/08/18 07:05:33;;;;;;;8.50;6.75;;;22.60;63.40;24.40;101549.00;;;;5048186;28;20202;-80
2023/08/18 07:07:59;;;;;;;8.20;6.55;;;22.70;63.50;24.40;101541.00;;;;5046420;28;20239;-78
2023/08/18 07:10:26;;;;;;;9.15;6.90;;;22.80;63.50;24.50;101540.00;;;;5048662;28;20196;-79
2023/08/18 07:12:53;;;;;;;7.97;6.60;;;22.80;63.30;24.50;101542.00;;;;5044460;28;20611;-76
2023/08/18 07:15:20;;;;;;;8.23;6.93;;;22.80;63.10;24.50;101550.00;;;;5048286;28;20195;-76
2023/08/18 07:17:47;;;;;;;8.55;6.53;;;22.90;63.10;24.60;101553.00;;;;5046020;28;20226;-77
2023/08/18 07:20:14;;;;;;;11.15;6.90;;;22.90;63.10;24.60;101546.00;;;;5045966;28;20195;-77
2023/08/18 07:22:43;;;;;;;7.40;6.38;;;23.00;63.20;24.70;101551.00;;;;5047820;28;20283;-78
2023/08/18 07:25:11;;;;;;;7.53;6.20;;;23.00;63.20;24.80;101549.00;;;;5048269;28;20203;-76
2023/08/18 07:27:38;;;;;;;7.80;6.63;;;23.10;63.30;24.80;101548.00;;;;5048154;28;20261;-77
2023/08/18 07:30:07;;;;;;;8.18;6.72;;;23.10;63.40;24.90;101553.00;;;;5030984;28;20208;-78
2023/08/18 07:32:34;;;;;;;8.35;6.38;;;23.20;63.40;25.00;101551.00;;;;5036664;28;20238;-77
2023/08/18 07:35:01;;;;;;;7.95;6.70;;;23.30;63.30;25.00;101551.00;;;;5047800;28;20709;-77
2023/08/18 07:37:28;;;;;;;7.50;6.57;;;23.40;63.20;25.10;101550.00;;;;5047250;28;20227;-77
2023/08/18 07:39:56;;;;;;;7.57;6.65;;;23.40;63.10;25.10;101553.00;;;;5039527;28;20222;-78
2023/08/18 07:42:23;;;;;;;9.98;7.47;;;23.50;63.10;25.20;101561.00;;;;5047112;28;20207;-77
2023/08/18 07:44:50;;;;;;;9.95;7.22;;;23.50;63.00;25.20;101565.00;;;;5047147;28;20187;-78
2023/08/18 07:47:17;;;;;;;7.55;6.10;;;23.60;63.00;25.30;101568.00;;;;5036028;28;20219;-78
2023/08/18 07:49:45;;;;;;;8.07;6.38;;;23.60;62.90;25.40;101561.00;;;;5052794;28;20582;-78
2023/08/18 07:52:12;;;;;;;12.40;7.07;;;23.70;62.80;25.40;101556.00;;;;5050311;28;20199;-78
2023/08/18 07:54:39;;;;;;;10.18;7.18;;;23.70;62.70;25.50;101562.00;;;;5050839;28;20195;-79
2023/08/18 07:57:07;;;;;;;9.80;6.60;;;23.80;62.60;25.50;101562.00;;;;5050837;28;20218;-79
2023/08/18 07:59:34;;;;;;;8.55;6.43;;;23.90;62.60;25.60;101566.00;;;;5048377;28;20608;-80
2023/08/18 08:02:02;;;;;;;8.00;6.72;;;23.90;62.40;25.60;101565.00;;;;5049590;28;20203;-78
2023/08/18 08:04:29;;;;;;;8.38;6.68;;;23.90;62.20;25.60;101566.00;;;;5046530;28;20207;-79
2023/08/18 08:06:56;;;;;;;7.95;6.68;;;24.00;62.10;25.60;101561.00;;;;5050091;28;20249;-79
2023/08/18 08:09:24;;;;;;;11.68;6.40;;;24.00;62.10;25.60;101569.00;;;;5050188;28;20573;-79
2023/08/18 08:11:52;;;;;;;10.00;7.15;;;24.00;62.10;25.70;101562.00;;;;5050481;28;20613;-79
2023/08/18 08:14:21;;;;;;;6.72;5.97;;;24.10;62.10;25.70;101567.00;;;;5050031;28;20188;-79
2023/08/18 08:16:48;;;;;;;9.88;6.88;;;24.10;62.00;25.80;101566.00;;;;5051156;28;20306;-79
2023/08/18 08:19:15;;;;;;;6.65;5.93;;;24.20;62.10;25.80;101569.00;;;;5049433;28;20214;-78
2023/08/18 08:21:42;;;;;;;9.00;6.15;;;24.20;62.20;25.90;101565.00;;;;5046879;28;20211;-78
2023/08/18 08:24:09;;;;;;;9.10;6.28;;;24.20;62.20;26.00;101561.00;;;;5048509;28;20222;-78
2023/08/18 08:26:36;;;;;;;8.90;6.32;;;24.30;62.10;26.00;101556.00;;;;5053004;28;20200;-78
2023/08/18 08:29:03;;;;;;;9.63;7.43;;;24.40;62.00;26.10;101563.00;;;;5053620;28;20206;-78
2023/08/18 08:31:32;;;;;;;11.30;7.40;;;24.40;62.00;26.10;101557.00;;;;5054429;28;20204;-78
2023/08/18 08:33:59;;;;;;;10.85;7.82;;;24.50;61.90;26.20;101550.00;;;;5051327;28;20206;-78
2023/08/18 08:36:32;;;;;;;8.25;6.40;;;24.50;61.80;26.20;101548.00;;;;5049032;28;20219;-77
2023/08/18 08:38:59;;;;;;;8.10;6.13;;;24.60;61.80;26.30;101549.00;;;;5048314;28;20192;-78
2023/08/18 08:41:27;;;;;;;8.80;6.30;;;24.60;61.70;26.30;101554.00;;;;5050283;28;20560;-78
2023/08/18 08:43:55;;;;;;;9.98;6.72;;;24.70;61.70;26.40;101556.00;;;;5050675;28;20293;-77
2023/08/18 08:46:23;;;;;;;9.35;6.72;;;24.80;61.80;26.50;101553.00;;;;5049753;28;20188;-78
2023/08/18 08:48:53;;;;;;;7.68;5.95;;;24.80;61.70;26.50;101551.00;;;;5050857;28;20203;-78
2023/08/18 08:51:28;;;;;;;6.93;5.80;;;24.90;61.80;26.60;101559.00;;;;5050942;28;20204;-78
2023/08/18 08:54:02;;;;;;;6.55;5.30;;;25.00;61.80;26.70;101562.00;;;;5047347;28;20203;-77
2023/08/18 08:56:33;;;;;;;6.43;5.10;;;25.10;62.00;26.80;101560.00;;;;5050416;28;20214;-78
2023/08/18 08:59:01;;;;;;;7.13;5.85;;;25.20;62.10;27.00;101565.00;;;;5051653;28;20207;-78
2023/08/18 09:01:28;;;;;;;8.77;6.13;;;25.30;62.00;27.10;101562.00;;;;5052026;28;20211;-78
2023/08/18 09:03:57;;;;;;;7.55;5.60;;;25.40;61.80;27.10;101560.00;;;;5052004;28;20200;-78
2023/08/18 09:06:24;;;;;;;8.68;6.32;;;25.50;61.80;27.20;101567.00;;;;5048763;28;20207;-77
2023/08/18 09:08:52;;;;;;;6.22;4.75;;;25.60;61.60;27.30;101568.00;;;;5051207;28;20231;-78
2023/08/18 09:11:19;;;;;;;7.00;4.82;;;25.70;61.40;27.40;101563.00;;;;5045118;28;20216;-78
2023/08/18 09:13:46;;;;;;;6.38;4.38;;;25.70;61.30;27.50;101569.00;;;;5051179;28;20200;-78
2023/08/18 09:16:13;;;;;;;8.48;4.43;;;25.80;61.20;27.50;101567.00;;;;5050811;28;20207;-78
2023/08/18 09:18:41;;;;;;;7.25;5.07;;;25.90;61.10;27.60;101570.00;;;;5048571;28;20196;-78
2023/08/18 09:21:09;;;;;;;6.57;4.88;;;26.00;61.10;27.70;101567.00;;;;5050229;28;20192;-78
2023/08/18 09:23:36;;;;;;;6.00;4.65;;;26.00;61.00;27.80;101560.00;;;;5050734;28;20194;-78
2023/08/18 09:26:04;;;;;;;7.03;5.25;;;26.10;60.90;27.80;101547.00;;;;5049481;28;20191;-78
2023/08/18 09:28:32;;;;;;;6.68;4.75;;;26.20;60.70;27.90;101550.00;;;;5046992;28;20203;-77
2023/08/18 09:30:59;;;;;;;5.35;4.45;;;26.20;60.60;28.00;101544.00;;;;5047037;28;20253;-77
2023/08/18 09:33:30;;;;;;;8.43;4.70;;;26.40;60.70;28.10;101559.00;;;;5047119;28;20678;-78
2023/08/18 09:35:59;;;;;;;7.53;4.75;;;26.40;60.70;28.20;101550.00;;;;5047218;28;20257;-78
2023/08/18 09:38:30;;;;;;;5.18;4.32;;;26.50;60.60;28.30;101559.00;;;;5049319;28;20220;-78
2023/08/18 09:40:59;;;;;;;5.07;4.43;;;26.70;60.60;28.40;101552.00;;;;5046745;28;20202;-79
2023/08/18 09:43:28;;;;;;;6.15;4.72;;;26.80;60.60;28.50;101556.00;;;;5048568;28;20231;-78
2023/08/18 09:45:57;;;;;;;6.50;4.93;;;26.90;60.20;28.50;101555.00;;;;5049502;28;20211;-77
2023/08/18 09:48:27;;;;;;;6.43;5.00;;;27.00;59.80;28.60;101557.00;;;;5051207;28;20207;-78
2023/08/18 09:50:58;;;;;;;6.40;4.55;;;27.10;59.60;28.60;101552.00;;;;5051157;28;20593;-78
2023/08/18 09:53:32;;;;;;;6.35;4.30;;;27.20;59.50;28.60;101547.00;;;;5052571;28;20206;-78
2023/08/18 09:56:04;;;;;;;5.20;4.38;;;27.20;59.20;28.60;101546.00;;;;5050136;28;20191;-79
2023/08/18 09:58:40;;;;;;;5.70;4.22;;;27.20;59.20;28.60;101539.00;;;;5050278;28;20293;-79
2023/08/18 10:01:12;;;;;;;5.72;4.80;;;27.20;59.00;28.70;101541.00;;;;5048108;28;20203;-76
2023/08/18 10:03:42;;;;;;;4.93;3.83;;;27.20;59.10;28.80;101544.00;;;;5028991;28;20236;-76
2023/08/18 10:06:10;;;;;;;4.85;4.35;;;27.30;59.10;28.80;101539.00;;;;5047056;28;20192;-76
2023/08/18 10:08:40;;;;;;;7.25;4.70;;;27.30;58.90;28.80;101539.00;;;;5043475;28;20322;-77
2023/08/18 10:11:09;;;;;;;5.20;4.07;;;27.40;58.90;28.90;101529.00;;;;5044840;28;20253;-75
2023/08/18 10:13:37;;;;;;;6.00;4.60;;;27.40;58.90;28.90;101535.00;;;;5047705;28;20215;-79
2023/08/18 10:16:07;;;;;;;4.18;3.67;;;27.40;58.80;28.90;101539.00;;;;5046886;28;20196;-78
2023/08/18 10:18:34;;;;;;;6.13;4.28;;;27.40;58.60;29.00;101541.00;;;;5048039;28;20239;-78
2023/08/18 10:21:01;;;;;;;5.70;4.63;;;27.50;58.70;29.00;101541.00;;;;5048516;28;20199;-78
2023/08/18 10:23:31;;;;;;;6.20;4.70;;;27.50;58.70;29.00;101535.00;;;;5048646;28;20208;-78
2023/08/18 10:26:03;;;;;;;8.15;4.55;;;27.50;58.50;29.10;101537.00;;;;5047890;28;20215;-78
2023/08/18 10:28:33;;;;;;;6.20;4.25;;;27.60;59.10;29.10;101538.00;;;;5047913;28;20196;-78
2023/08/18 10:31:07;;;;;;;5.82;4.68;;;27.60;58.50;29.10;101537.00;;;;5048103;28;20249;-78
2023/08/18 10:33:43;;;;;;;5.22;4.15;;;27.70;58.50;29.20;101532.00;;;;5046820;28;20196;-78
2023/08/18 10:36:15;;;;;;;6.78;4.53;;;27.70;58.40;29.20;101531.00;;;;5046193;28;20191;-78
2023/08/18 10:38:42;;;;;;;6.13;3.83;;;27.80;58.30;29.20;101525.00;;;;5048066;28;20630;-79
2023/08/18 10:41:12;;;;;;;4.40;3.72;;;27.80;58.20;29.20;101524.00;;;;5047279;28;20196;-79
2023/08/18 10:43:45;;;;;;;5.43;4.38;;;27.80;58.10;29.30;101517.00;;;;5047103;28;20192;-80
2023/08/18 10:46:13;;;;;;;5.25;4.05;;;27.90;58.20;29.30;101510.00;;;;5046706;28;20196;-79
2023/08/18 10:48:40;;;;;;;5.90;4.32;;;27.90;58.40;29.40;101517.00;;;;5048300;28;20204;-78
2023/08/18 10:51:08;;;;;;;7.18;4.18;;;28.00;58.50;29.50;101512.00;;;;5046770;28;20211;-79